Skip Navigation Links Skip Navigation Links

Current Weather

Chan Gurney Muni, Yankton, S.D.

For information only: do not use for flight planning or navigation.
Latest weather
Observation time Monday, October 18, 2021 3:56 PM CDT
Local time Monday, October 18, 2021 4:18 PM CDT
Flight conditions Visual Meteorological Conditions
Winds
Wind direction South-Southeast (160°)
Wind speed 22 mph
Wind gusting to 28 mph
Peak wind speed 30 mph, 3:46 PM
Peak wind direction South-Southeast (160°)
Visibility 10 mi.
Sky condition
Ceiling unlimited
Sky clear
Temperature 76°F
Dewpoint 34°F
Altimeter 29.82 in.Hg
Pressure change last 3 hours0.06 in.Hg
Pressure falling more slowly
Derived measurements
Relative humidity 22%
Density altitude 2615 ft.
Sea-level pressure 29.85 in.Hg
Remarks
Fully automated report.
Automated weather observing station with precipitation discriminator.
METAR KYKN 182056Z AUTO 16019G24KT 10SM CLR 24/01 A2982 RMK AO2 PK WND 16026/2046 SLP107 T02440011 56019

Settings

Location code

InnerDrive.Weather 4.0.6770.0 Release CLR 4.0.30319.42000
Copyright ©2018 Inner Drive Technology. All rights reserved. Portions Copyright ©1986-2018 David Braverman.

Find weather

Site navigation


Skip Navigation Links

Place info

Page info

PayPal - The safer, easier way to pay online!

Return home.

Copyright ©2021 Inner Drive Technology. Purveyors of fine, hand-crafted computer software. Page printed 2021-10-18T21:18:46 UTC.